Atwood, Kentucky
Current Conditions -  °F | °C
As of 9:52 AM on Sunday 23 Nov 2014 (Local Time) from KCVG Reporting Station
Broken Clouds Broken Clouds  
Wind Chill: 12°   Ceiling: 7000
Heat Index: 12°   Visibility: 10mi
Dew Point:   Wind: 9mph
Humidity: 57%   Direction: 150°SSE
Pressure: 29.94"   Gusts: NA
Location:  38.8354°N, 84.5143°W
Report Text: KCVG 231452Z 15008KT 10SM SCT044 BKN070 BKN250 12/04 A2994 RMK AO2 SLP137 T01220039 58013
Loading
Personal Weather Stations






























Interactive Weather Map New forecast layout! Learn more

10-Day Weather Forecast

Advertisements
Track Severe Weather on mobile